Time;durP1;ratioP1;P1;durP2;ratioP2;P2;SDS_P1;SDS_P2;PMS_P1;PMS_P2;Temp;Humidity;BMP_temperature;BMP_pressure;BME280_temperature;BME280_humidity;BME280_pressure;Samples;Min_cycle;Max_cycle;Signal;HPM_P1;HPM_P2
2022/04/23 00:01:39;;;;;;;10.60;7.20;;;11.60;99.90;;;;;;5003153;28;20049;-78
2022/04/23 00:04:05;;;;;;;8.95;6.70;;;11.60;99.90;;;;;;4998504;28;20037;-77
2022/04/23 00:06:31;;;;;;;12.70;6.07;;;11.60;99.90;;;;;;5005438;28;20044;-77
2022/04/23 00:08:56;;;;;;;9.00;6.60;;;11.60;99.90;;;;;;4997042;28;20038;-77
2022/04/23 00:11:22;;;;;;;10.18;6.45;;;11.20;99.90;;;;;;5005552;28;20223;-77
2022/04/23 00:13:48;;;;;;;12.82;6.60;;;11.60;99.90;;;;;;4987146;28;20037;-77
2022/04/23 00:16:15;;;;;;;8.80;7.05;;;11.60;99.90;;;;;;4985139;28;20053;-77
2022/04/23 00:18:42;;;;;;;12.90;6.53;;;13.00;99.90;;;;;;4998175;28;20049;-77
2022/04/23 00:21:08;;;;;;;8.20;6.30;;;11.60;99.90;;;;;;5005251;28;20080;-77
2022/04/23 00:23:34;;;;;;;8.23;6.13;;;11.70;99.90;;;;;;4982902;28;20034;-77
2022/04/23 00:26:00;;;;;;;9.30;5.63;;;11.50;99.90;;;;;;4994844;28;20097;-77
2022/04/23 00:28:26;;;;;;;7.85;5.57;;;11.60;99.90;;;;;;4999731;28;20347;-77
2022/04/23 00:30:52;;;;;;;7.90;5.43;;;11.60;99.90;;;;;;5001187;28;20124;-78
2022/04/23 00:33:21;;;;;;;9.05;5.55;;;12.00;99.90;;;;;;4986413;28;21057;-78
2022/04/23 00:35:50;;;;;;;6.50;5.32;;;11.50;99.90;;;;;;5003765;28;20112;-77
2022/04/23 00:38:17;;;;;;;10.45;5.93;;;11.50;99.90;;;;;;5003265;28;20038;-78
2022/04/23 00:40:44;;;;;;;7.82;6.20;;;11.10;99.90;;;;;;5002817;28;20045;-78
2022/04/23 00:43:25;;;;;;;11.93;5.90;;;11.40;99.90;;;;;;4987492;28;20402;-78
2022/04/23 00:45:51;;;;;;;10.43;5.53;;;12.50;99.90;;;;;;5002555;28;20038;-77
2022/04/23 00:48:17;;;;;;;9.48;5.82;;;11.60;99.90;;;;;;4996631;28;20475;-80
2022/04/23 00:50:42;;;;;;;10.52;5.97;;;11.20;99.90;;;;;;4996354;28;20072;-77
2022/04/23 00:53:09;;;;;;;13.88;6.35;;;11.30;99.90;;;;;;5005262;28;20133;-77
2022/04/23 00:55:36;;;;;;;11.25;6.00;;;11.90;99.90;;;;;;4996840;28;20532;-78
2022/04/23 00:58:02;;;;;;;11.63;6.40;;;11.10;99.90;;;;;;4997220;28;20030;-77
2022/04/23 01:00:27;;;;;;;8.95;5.68;;;11.80;99.90;;;;;;4999581;28;20056;-78
2022/04/23 01:02:54;;;;;;;11.38;6.22;;;11.10;99.90;;;;;;4975889;28;20383;-77
2022/04/23 01:05:23;;;;;;;9.82;5.75;;;11.00;99.90;;;;;;4991453;28;20126;-78
2022/04/23 01:07:51;;;;;;;12.93;6.43;;;11.00;99.90;;;;;;4981391;28;21113;-77
2022/04/23 01:10:17;;;;;;;13.70;6.70;;;11.80;99.90;;;;;;4984359;28;20108;-77
2022/04/23 01:12:45;;;;;;;8.95;6.63;;;10.90;99.90;;;;;;4989664;28;20034;-78
2022/04/23 01:15:13;;;;;;;13.05;6.65;;;11.30;99.90;;;;;;4996537;28;20131;-78
2022/04/23 01:17:40;;;;;;;9.32;6.68;;;10.70;99.90;;;;;;4981791;28;20041;-78
2022/04/23 01:20:08;;;;;;;11.32;6.53;;;10.20;99.90;;;;;;4987370;28;20041;-77
2022/04/23 01:22:35;;;;;;;14.55;6.78;;;10.70;99.90;;;;;;4995269;28;20073;-77
2022/04/23 01:25:06;;;;;;;11.13;7.07;;;10.30;99.90;;;;;;5001019;28;20044;-77
2022/04/23 01:27:34;;;;;;;8.40;6.43;;;10.70;99.90;;;;;;5002579;28;20044;-77
2022/04/23 01:30:00;;;;;;;12.80;7.07;;;12.40;99.90;;;;;;4999683;28;20048;-77
2022/04/23 01:32:26;;;;;;;11.13;7.13;;;12.20;99.90;;;;;;5004810;28;20390;-77
2022/04/23 01:34:51;;;;;;;11.27;7.55;;;10.70;99.90;;;;;;4998820;28;20045;-77
2022/04/23 01:37:17;;;;;;;11.95;7.75;;;10.50;99.90;;;;;;4998497;28;20509;-77
2022/04/23 01:39:44;;;;;;;9.00;7.15;;;10.30;99.90;;;;;;5000901;28;20084;-77
2022/04/23 01:42:10;;;;;;;12.45;7.80;;;12.30;99.90;;;;;;4986141;28;20056;-77
2022/04/23 01:44:36;;;;;;;14.65;7.35;;;10.60;99.90;;;;;;4965905;28;20050;-78
2022/04/23 01:47:02;;;;;;;10.82;7.40;;;10.60;99.90;;;;;;5000770;28;20434;-78
2022/04/23 01:49:27;;;;;;;11.10;7.43;;;10.70;99.90;;;;;;5003010;28;20476;-77
2022/04/23 01:51:53;;;;;;;8.23;7.30;;;11.20;99.90;;;;;;5001941;28;20121;-78
2022/04/23 01:54:19;;;;;;;9.10;7.25;;;10.60;99.90;;;;;;4988538;28;20045;-77
2022/04/23 01:56:44;;;;;;;10.82;7.43;;;10.60;99.90;;;;;;5003733;28;20154;-77
2022/04/23 01:59:10;;;;;;;9.85;7.47;;;11.90;99.90;;;;;;5004770;28;20548;-78
2022/04/23 02:01:37;;;;;;;15.63;8.45;;;10.50;99.90;;;;;;5003668;28;20156;-78
2022/04/23 02:04:05;;;;;;;14.35;8.48;;;10.40;99.90;;;;;;4998784;28;20042;-78
2022/04/23 02:06:33;;;;;;;9.10;7.68;;;10.50;99.90;;;;;;4983047;28;20056;-77
2022/04/23 02:08:59;;;;;;;13.73;7.72;;;12.20;99.90;;;;;;5002387;28;20522;-76
2022/04/23 02:11:25;;;;;;;11.20;8.65;;;10.50;99.90;;;;;;5004510;28;20065;-77
2022/04/23 02:13:51;;;;;;;19.75;8.25;;;10.70;99.90;;;;;;5002267;28;20107;-77
2022/04/23 02:16:16;;;;;;;12.60;8.52;;;10.40;99.90;;;;;;5001804;28;20064;-77
2022/04/23 02:18:42;;;;;;;12.57;8.50;;;10.40;99.90;;;;;;4990879;28;20048;-78
2022/04/23 02:21:08;;;;;;;14.82;7.57;;;11.30;99.90;;;;;;5007530;28;20026;-77
2022/04/23 02:23:33;;;;;;;11.98;7.85;;;10.40;99.90;;;;;;5004292;28;20061;-78
2022/04/23 02:25:59;;;;;;;15.15;8.55;;;9.80;99.90;;;;;;4988940;28;20034;-77
2022/04/23 02:28:25;;;;;;;13.38;8.88;;;10.40;99.90;;;;;;5006362;28;20125;-77
2022/04/23 02:30:51;;;;;;;13.07;8.40;;;10.40;99.90;;;;;;5004116;28;20054;-78
2022/04/23 02:33:17;;;;;;;14.32;8.27;;;10.50;99.90;;;;;;5006116;28;20045;-78
2022/04/23 02:35:44;;;;;;;17.77;9.32;;;11.20;99.90;;;;;;5000539;28;20517;-78
2022/04/23 02:38:10;;;;;;;11.98;8.57;;;10.30;99.90;;;;;;5009052;28;20254;-78
2022/04/23 02:40:36;;;;;;;11.00;8.60;;;10.20;99.90;;;;;;5002265;28;20342;-78
2022/04/23 02:43:03;;;;;;;16.40;9.32;;;10.00;99.90;;;;;;5000052;28;20050;-78
2022/04/23 02:45:29;;;;;;;11.45;7.85;;;10.30;99.90;;;;;;5002514;28;20051;-78
2022/04/23 02:47:56;;;;;;;11.68;8.38;;;10.30;99.90;;;;;;5003791;28;20050;-77
2022/04/23 02:50:31;;;;;;;12.20;9.30;;;10.20;99.90;;;;;;4984922;28;20074;-77
2022/04/23 02:52:57;;;;;;;9.70;8.68;;;10.20;99.90;;;;;;5002883;28;20037;-78
2022/04/23 02:55:28;;;;;;;15.30;9.00;;;10.10;99.90;;;;;;4986882;28;20041;-78
2022/04/23 02:57:57;;;;;;;11.82;8.88;;;10.20;99.90;;;;;;4990736;28;20049;-78
2022/04/23 03:00:22;;;;;;;10.00;8.50;;;10.50;99.90;;;;;;4983827;28;20138;-77
2022/04/23 03:02:48;;;;;;;12.90;8.20;;;10.20;99.90;;;;;;5007041;28;20516;-78
2022/04/23 03:05:15;;;;;;;11.45;8.50;;;9.80;99.90;;;;;;4998452;28;20125;-78
2022/04/23 03:07:41;;;;;;;12.15;8.63;;;10.70;99.90;;;;;;5004864;28;20077;-78
2022/04/23 03:10:09;;;;;;;12.35;8.57;;;11.30;99.90;;;;;;5003089;28;20470;-78
2022/04/23 03:12:38;;;;;;;16.05;9.57;;;10.10;99.90;;;;;;4984392;28;20057;-77
2022/04/23 03:15:10;;;;;;;10.55;8.32;;;10.00;99.90;;;;;;4981993;28;20138;-77
2022/04/23 03:17:36;;;;;;;13.57;8.85;;;10.10;99.90;;;;;;4970334;28;20331;-77
2022/04/23 03:20:04;;;;;;;12.60;9.57;;;12.00;99.90;;;;;;4995147;28;20108;-78
2022/04/23 03:22:29;;;;;;;13.60;9.10;;;10.00;99.90;;;;;;5007673;28;20982;-77
2022/04/23 03:24:55;;;;;;;11.27;8.25;;;10.00;99.90;;;;;;5004440;28;20422;-78
2022/04/23 03:27:21;;;;;;;10.57;8.07;;;9.90;99.90;;;;;;4988039;28;20046;-77
2022/04/23 03:29:46;;;;;;;10.43;8.38;;;9.90;99.90;;;;;;5008454;28;20052;-78
2022/04/23 03:32:12;;;;;;;9.68;8.70;;;10.10;99.90;;;;;;5000871;28;20121;-79
2022/04/23 03:34:38;;;;;;;11.45;8.05;;;9.90;99.90;;;;;;5003608;28;20152;-77
2022/04/23 03:37:05;;;;;;;10.75;7.90;;;9.90;99.90;;;;;;4988277;28;20137;-77
2022/04/23 03:39:32;;;;;;;11.40;8.25;;;11.60;99.90;;;;;;5004751;28;20058;-77
2022/04/23 03:41:58;;;;;;;11.70;8.15;;;11.60;99.90;;;;;;5001800;28;20050;-77
2022/04/23 03:44:23;;;;;;;12.48;8.02;;;9.80;99.90;;;;;;4984973;28;20501;-77
2022/04/23 03:46:49;;;;;;;9.07;7.90;;;9.80;99.90;;;;;;5005984;28;20049;-77
2022/04/23 03:49:15;;;;;;;14.35;8.52;;;9.80;99.90;;;;;;5004031;28;20057;-78
2022/04/23 03:51:41;;;;;;;11.50;8.70;;;9.70;99.90;;;;;;5006463;28;20104;-77
2022/04/23 03:54:07;;;;;;;9.52;8.43;;;9.70;99.90;;;;;;4986027;28;20046;-77
2022/04/23 03:56:33;;;;;;;11.98;8.80;;;9.70;99.90;;;;;;4990803;28;20188;-77
2022/04/23 03:59:00;;;;;;;11.48;8.05;;;11.00;99.90;;;;;;4990266;28;20459;-77
2022/04/23 04:01:27;;;;;;;13.32;8.50;;;9.70;99.90;;;;;;4989627;28;20073;-77
2022/04/23 04:03:52;;;;;;;11.02;8.70;;;9.30;99.90;;;;;;5000995;28;20148;-78
2022/04/23 04:06:18;;;;;;;9.60;8.15;;;11.10;99.90;;;;;;5004344;28;20125;-78
2022/04/23 04:08:44;;;;;;;12.30;8.32;;;9.50;99.90;;;;;;4996703;28;20061;-78
2022/04/23 04:11:10;;;;;;;13.30;9.23;;;10.60;99.90;;;;;;5006596;28;20030;-78
2022/04/23 04:13:36;;;;;;;8.88;8.00;;;9.60;99.90;;;;;;5006776;28;20042;-77
2022/04/23 04:16:02;;;;;;;12.90;8.40;;;9.60;99.90;;;;;;5006221;28;20064;-78
2022/04/23 04:18:28;;;;;;;9.43;8.40;;;9.60;99.90;;;;;;4988172;28;20038;-78
2022/04/23 04:20:55;;;;;;;10.32;8.70;;;9.50;99.90;;;;;;4985970;28;20104;-78
2022/04/23 04:23:23;;;;;;;13.25;8.52;;;9.40;99.90;;;;;;5006205;28;20121;-78
2022/04/23 04:25:48;;;;;;;11.93;8.63;;;9.60;99.90;;;;;;5006665;28;20072;-78
2022/04/23 04:28:14;;;;;;;9.20;8.10;;;9.70;99.90;;;;;;5001707;28;20063;-78
2022/04/23 04:33:24;;;;;;;12.30;8.65;;;9.60;99.90;;;;;;5002587;28;20129;-78
2022/04/23 04:35:49;;;;;;;10.65;8.55;;;9.60;99.90;;;;;;4985699;28;20137;-78
2022/04/23 04:38:15;;;;;;;10.60;9.18;;;10.20;99.90;;;;;;4990817;28;20034;-78
2022/04/23 04:40:40;;;;;;;11.70;8.85;;;9.70;99.90;;;;;;5003289;28;20046;-77
2022/04/23 04:43:07;;;;;;;10.13;9.10;;;9.60;99.90;;;;;;5000570;28;20041;-77
2022/04/23 04:45:33;;;;;;;9.18;8.15;;;9.60;99.90;;;;;;5006550;28;20111;-77
2022/04/23 04:47:58;;;;;;;9.32;8.23;;;11.20;99.90;;;;;;4985093;28;20302;-77
2022/04/23 04:50:24;;;;;;;10.48;8.70;;;9.50;99.90;;;;;;5003290;28;20042;-77
2022/04/23 04:52:50;;;;;;;12.88;8.98;;;9.40;99.90;;;;;;4999873;28;20041;-78
2022/04/23 04:55:15;;;;;;;8.95;8.05;;;9.50;99.90;;;;;;5003531;28;20394;-78
2022/04/23 04:57:42;;;;;;;9.60;8.50;;;10.40;99.90;;;;;;5003405;28;20129;-78
2022/04/23 05:00:08;;;;;;;10.35;8.82;;;10.00;99.90;;;;;;4988492;28;20434;-78
2022/04/23 05:02:34;;;;;;;10.65;8.68;;;9.40;99.90;;;;;;5005446;28;20088;-77
2022/04/23 05:05:00;;;;;;;8.68;7.88;;;9.40;99.90;;;;;;4980988;28;20034;-78
2022/04/23 05:07:25;;;;;;;10.85;8.43;;;9.60;99.90;;;;;;5006612;28;20080;-78
2022/04/23 05:09:51;;;;;;;9.93;8.70;;;9.40;99.90;;;;;;5005385;28;20042;-78
2022/04/23 05:12:16;;;;;;;10.77;8.77;;;9.40;99.90;;;;;;5001983;28;20128;-78
2022/04/23 05:14:42;;;;;;;9.98;8.63;;;9.30;99.90;;;;;;4985925;28;20490;-78
2022/04/23 05:17:08;;;;;;;11.15;9.10;;;9.20;99.90;;;;;;5007024;28;20506;-78
2022/04/23 05:19:34;;;;;;;9.70;8.43;;;9.40;99.90;;;;;;5000087;28;20092;-78
2022/04/23 05:21:59;;;;;;;9.65;8.45;;;8.90;99.90;;;;;;5001649;28;20034;-77
2022/04/23 05:24:25;;;;;;;11.80;8.63;;;9.30;99.90;;;;;;5004885;28;20046;-78
2022/04/23 05:26:50;;;;;;;10.95;7.97;;;9.30;99.90;;;;;;4970119;28;20053;-77
2022/04/23 05:29:16;;;;;;;8.88;7.68;;;9.40;99.90;;;;;;5008205;28;20045;-77
2022/04/23 05:31:41;;;;;;;9.38;8.38;;;9.30;99.90;;;;;;5001935;28;20045;-78
2022/04/23 05:34:07;;;;;;;12.05;7.95;;;9.00;99.90;;;;;;5000313;28;20101;-78
2022/04/23 05:36:33;;;;;;;9.18;8.27;;;9.40;99.90;;;;;;5001288;28;20141;-78
2022/04/23 05:38:58;;;;;;;9.45;8.30;;;9.10;99.90;;;;;;5003846;28;20069;-77
2022/04/23 05:41:24;;;;;;;9.20;8.30;;;9.40;99.90;;;;;;5004395;28;20034;-78
2022/04/23 05:43:50;;;;;;;16.55;8.63;;;9.40;99.90;;;;;;5003192;28;20520;-77
2022/04/23 05:46:17;;;;;;;11.25;8.88;;;9.10;99.90;;;;;;4989985;28;20513;-78
2022/04/23 05:48:43;;;;;;;9.15;8.20;;;10.10;99.90;;;;;;5008414;28;20065;-78
2022/04/23 05:51:09;;;;;;;10.75;8.63;;;9.70;99.90;;;;;;4990429;28;20137;-78
2022/04/23 05:53:35;;;;;;;9.60;8.68;;;9.40;99.90;;;;;;5007849;28;20176;-77
2022/04/23 05:56:01;;;;;;;8.63;7.72;;;9.40;99.90;;;;;;4983708;28;20410;-77
2022/04/23 05:58:27;;;;;;;10.27;8.38;;;11.50;99.90;;;;;;5008462;28;20097;-77
2022/04/23 06:00:52;;;;;;;9.73;7.93;;;9.70;99.90;;;;;;4984563;28;20033;-78
2022/04/23 06:03:19;;;;;;;10.52;8.05;;;11.50;99.90;;;;;;4985505;28;20046;-78
2022/04/23 06:05:45;;;;;;;9.63;7.78;;;9.50;99.90;;;;;;5006950;28;20037;-78
2022/04/23 06:08:10;;;;;;;9.85;8.85;;;10.80;99.90;;;;;;5005660;28;20054;-78
2022/04/23 06:10:36;;;;;;;10.52;9.13;;;9.50;99.90;;;;;;4989757;28;20033;-78
2022/04/23 06:13:02;;;;;;;9.20;8.15;;;9.60;99.90;;;;;;4986682;28;20038;-78
2022/04/23 06:15:28;;;;;;;9.27;8.35;;;9.60;99.90;;;;;;5004764;28;20125;-78
2022/04/23 06:17:53;;;;;;;9.93;8.93;;;9.70;99.90;;;;;;5003186;28;20046;-78
2022/04/23 06:20:19;;;;;;;10.40;9.32;;;9.60;99.90;;;;;;5001632;28;20406;-77
2022/04/23 06:22:45;;;;;;;10.43;8.73;;;9.60;99.90;;;;;;5002364;28;20087;-77
2022/04/23 06:25:10;;;;;;;10.00;8.45;;;9.70;99.90;;;;;;5008079;28;20069;-77
2022/04/23 06:27:37;;;;;;;8.88;7.97;;;9.70;99.90;;;;;;5001450;28;20057;-77
2022/04/23 06:30:04;;;;;;;10.32;8.32;;;9.80;99.90;;;;;;4987538;28;20046;-77
2022/04/23 06:32:29;;;;;;;9.85;8.50;;;9.80;99.90;;;;;;4989388;28;20050;-77
2022/04/23 06:34:56;;;;;;;8.48;7.70;;;9.70;99.90;;;;;;5000726;28;20204;-77
2022/04/23 06:37:21;;;;;;;9.95;8.95;;;9.80;99.90;;;;;;5007370;28;20053;-77
2022/04/23 06:39:47;;;;;;;9.35;7.93;;;11.00;99.90;;;;;;4988358;28;20103;-78
2022/04/23 06:42:12;;;;;;;10.48;8.38;;;9.90;99.90;;;;;;5006080;28;20042;-77
2022/04/23 06:44:38;;;;;;;12.18;8.35;;;10.00;99.90;;;;;;4998769;28;20085;-77
2022/04/23 06:47:04;;;;;;;7.93;7.28;;;10.00;99.90;;;;;;5006451;28;21935;-77
2022/04/23 06:49:30;;;;;;;10.98;8.75;;;10.10;99.90;;;;;;4983613;28;20084;-77
2022/04/23 06:51:56;;;;;;;9.82;8.52;;;10.10;99.90;;;;;;4996632;28;20053;-77
2022/04/23 06:54:22;;;;;;;10.95;9.13;;;10.20;99.90;;;;;;4990973;28;20148;-77
2022/04/23 06:56:48;;;;;;;9.00;7.95;;;10.30;99.90;;;;;;4974399;28;20682;-77
2022/04/23 06:59:14;;;;;;;11.98;8.77;;;10.30;99.90;;;;;;5007516;28;20512;-77
2022/04/23 07:01:42;;;;;;;11.55;8.88;;;10.40;99.90;;;;;;5007415;28;20042;-78
2022/04/23 07:04:09;;;;;;;12.07;8.65;;;10.40;99.90;;;;;;4987576;28;20038;-78
2022/04/23 07:06:35;;;;;;;9.52;8.10;;;12.30;99.90;;;;;;5007984;28;20038;-78
2022/04/23 07:09:01;;;;;;;10.63;8.40;;;10.30;99.90;;;;;;4983947;28;20047;-78
2022/04/23 07:11:26;;;;;;;9.25;8.15;;;10.10;99.90;;;;;;4974439;28;20319;-78
2022/04/23 07:13:52;;;;;;;13.15;8.15;;;10.70;99.90;;;;;;5003922;28;20123;-77
2022/04/23 07:16:17;;;;;;;11.23;8.55;;;10.70;99.90;;;;;;5003719;28;20056;-78
2022/04/23 07:18:43;;;;;;;9.60;7.88;;;10.50;99.90;;;;;;5004120;28;20578;-77
2022/04/23 07:21:09;;;;;;;11.70;7.90;;;10.80;99.90;;;;;;5004740;28;20465;-78
2022/04/23 07:26:19;;;;;;;;;;;11.00;99.90;;;;;;5001449;28;20038;-78
2022/04/23 07:28:45;;;;;;;14.43;8.05;;;11.10;99.90;;;;;;5005482;28;19944;-76
2022/04/23 07:31:10;;;;;;;9.40;8.50;;;11.20;99.90;;;;;;4986019;28;20505;-78
2022/04/23 07:39:04;;;;;;;8.43;7.50;;;11.30;99.90;;;;;;4998885;28;20519;-78
2022/04/23 07:41:30;;;;;;;9.48;7.68;;;11.40;99.90;;;;;;5002385;28;20101;-79
2022/04/23 07:43:59;;;;;;;8.73;7.82;;;11.50;99.90;;;;;;4637196;28;10000243;-77
2022/04/23 07:46:25;;;;;;;10.52;7.70;;;11.50;99.90;;;;;;4997791;28;20049;-77
2022/04/23 07:48:50;;;;;;;11.27;7.97;;;11.50;99.90;;;;;;4998268;28;20048;-77
2022/04/23 07:51:16;;;;;;;7.45;6.55;;;11.60;99.90;;;;;;5006422;28;20050;-76
2022/04/23 07:53:42;;;;;;;8.63;7.72;;;11.70;99.90;;;;;;4984033;28;21101;-77
2022/04/23 07:56:08;;;;;;;9.05;6.82;;;11.70;99.90;;;;;;4999552;28;20132;-76
2022/04/23 07:58:33;;;;;;;11.15;7.80;;;11.80;99.90;;;;;;4987745;28;20403;-77
2022/04/23 08:00:59;;;;;;;8.88;7.95;;;11.80;99.90;;;;;;4999609;28;20112;-76
2022/04/23 08:03:24;;;;;;;8.85;7.97;;;11.80;99.90;;;;;;5001335;28;20042;-76
2022/04/23 08:05:50;;;;;;;9.30;8.15;;;12.50;99.90;;;;;;5004094;28;20348;-76
2022/04/23 08:08:17;;;;;;;10.52;7.88;;;11.90;99.90;;;;;;5000644;28;20072;-78
2022/04/23 08:10:44;;;;;;;9.65;8.57;;;11.90;99.90;;;;;;4991231;28;20066;-78
2022/04/23 08:13:11;;;;;;;9.07;8.20;;;12.00;99.90;;;;;;5002164;28;20061;-77
2022/04/23 08:15:36;;;;;;;12.02;7.90;;;12.00;99.90;;;;;;4999404;28;20038;-77
2022/04/23 08:18:02;;;;;;;11.80;7.68;;;12.10;99.90;;;;;;4981857;28;20659;-76
2022/04/23 08:20:30;;;;;;;9.93;8.35;;;12.10;99.90;;;;;;4997072;28;20112;-75
2022/04/23 08:22:56;;;;;;;10.27;8.35;;;12.10;99.90;;;;;;4985812;28;20096;-76
2022/04/23 08:25:22;;;;;;;9.43;7.15;;;12.20;99.90;;;;;;4998934;28;20411;-75
2022/04/23 08:30:34;;;;;;;9.13;7.57;;;12.30;99.90;;;;;;5000436;28;20081;-79
2022/04/23 08:30:45;;;;;;;16.30;8.00;;;12.40;99.90;;;;;;5000119;28;20069;-76
2022/04/23 08:33:11;;;;;;;10.98;8.43;;;12.50;99.90;;;;;;4982264;28;20073;-77
2022/04/23 08:35:38;;;;;;;10.13;9.13;;;12.60;99.90;;;;;;5002625;28;20042;-78
2022/04/23 08:38:04;;;;;;;10.57;7.63;;;12.60;99.90;;;;;;5002479;28;20681;-76
2022/04/23 08:40:43;;;;;;;8.38;7.30;;;12.70;99.90;;;;;;4987253;28;20068;-76
2022/04/23 08:43:09;;;;;;;12.25;8.13;;;12.80;99.90;;;;;;5004028;28;20522;-80
2022/04/23 08:45:38;;;;;;;11.52;8.52;;;12.80;99.90;;;;;;4989343;28;20058;-80
2022/04/23 08:48:09;;;;;;;8.02;7.30;;;12.90;99.90;;;;;;5004455;28;20038;-76
2022/04/23 08:50:37;;;;;;;10.85;7.25;;;11.90;99.90;;;;;;5002304;28;20046;-75
2022/04/23 08:53:07;;;;;;;7.88;7.15;;;13.20;99.90;;;;;;5002123;28;20193;-73
2022/04/23 08:55:33;;;;;;;9.75;8.00;;;13.30;99.90;;;;;;5003659;28;20128;-74
2022/04/23 08:58:00;;;;;;;12.85;7.15;;;13.40;99.90;;;;;;5003819;28;20129;-78
2022/04/23 09:00:26;;;;;;;8.55;7.75;;;13.40;99.90;;;;;;5002796;28;20041;-77
2022/04/23 09:02:52;;;;;;;8.35;7.63;;;13.50;99.90;;;;;;5005746;28;20050;-74
2022/04/23 09:05:18;;;;;;;8.88;6.90;;;13.50;99.90;;;;;;5000213;28;20114;-76
2022/04/23 09:07:56;;;;;;;7.28;6.63;;;13.60;99.90;;;;;;4999960;28;20042;-75
2022/04/23 09:10:45;;;;;;;8.95;7.60;;;13.70;99.90;;;;;;5000486;28;20082;-73
2022/04/23 09:13:11;;;;;;;8.85;7.63;;;13.80;99.90;;;;;;4998463;28;20030;-74
2022/04/23 09:24:09;;;;;;;9.65;7.25;;;14.30;99.90;;;;;;5001536;28;20453;-80
2022/04/23 09:26:34;;;;;;;11.32;7.43;;;14.30;99.80;;;;;;5005957;28;20046;-76
2022/04/23 09:29:15;;;;;;;14.55;6.97;;;14.40;99.50;;;;;;5003189;28;20060;-79
2022/04/23 09:31:42;;;;;;;16.17;7.20;;;14.50;98.80;;;;;;4988582;28;20038;-78
2022/04/23 09:34:18;;;;;;;14.10;7.72;;;14.40;98.60;;;;;;5005822;28;20038;-74
2022/04/23 09:36:55;;;;;;;11.75;6.70;;;14.60;98.80;;;;;;5002274;28;20149;-78
2022/04/23 09:39:38;;;;;;;11.43;6.25;;;14.60;98.70;;;;;;4998001;28;20046;-78
2022/04/23 09:42:30;;;;;;;10.00;6.87;;;14.60;96.70;;;;;;5005353;28;20558;-75
2022/04/23 09:44:56;;;;;;;9.35;6.20;;;15.10;95.80;;;;;;4996118;28;20538;-79
2022/04/23 09:47:31;;;;;;;8.43;5.97;;;14.50;95.80;;;;;;4974365;28;20042;-76
2022/04/23 09:49:57;;;;;;;10.65;6.32;;;14.70;95.70;;;;;;5008064;28;20034;-76
2022/04/23 09:52:30;;;;;;;7.57;6.78;;;14.80;95.80;;;;;;5006018;28;20038;-79
2022/04/23 09:54:58;;;;;;;13.27;7.32;;;14.90;95.80;;;;;;5007289;28;21266;-74
2022/04/23 09:57:24;;;;;;;15.48;7.10;;;14.90;95.70;;;;;;4986740;28;20390;-79
2022/04/23 09:59:54;;;;;;;8.48;6.22;;;15.00;95.50;;;;;;5003312;28;20064;-79
2022/04/23 10:02:20;;;;;;;7.03;6.43;;;15.00;95.30;;;;;;4999442;28;20053;-75
2022/04/23 10:04:46;;;;;;;8.90;6.80;;;15.10;95.00;;;;;;5003675;28;20050;-75
2022/04/23 10:07:17;;;;;;;9.02;8.02;;;15.90;94.90;;;;;;4998341;28;20054;-75
2022/04/23 10:09:47;;;;;;;8.68;6.72;;;15.20;94.80;;;;;;5000751;28;20046;-74
2022/04/23 10:12:17;;;;;;;8.18;6.95;;;15.20;93.70;;;;;;5001486;28;20043;-78
2022/04/23 10:14:49;;;;;;;8.43;6.90;;;15.20;93.70;;;;;;4999004;28;20041;-77
2022/04/23 10:17:18;;;;;;;10.52;6.75;;;16.10;94.10;;;;;;4996928;28;20046;-73
2022/04/23 10:19:44;;;;;;;7.68;6.85;;;15.20;93.10;;;;;;5003101;28;20384;-78
2022/04/23 10:22:37;;;;;;;8.48;6.45;;;15.30;93.60;;;;;;4982189;28;20054;-74
2022/04/23 10:25:27;;;;;;;7.40;6.40;;;15.40;93.50;;;;;;4999794;28;20034;-77
2022/04/23 10:27:55;;;;;;;7.55;6.95;;;15.40;92.50;;;;;;4995388;28;20034;-74
2022/04/23 10:30:21;;;;;;;11.30;7.80;;;15.50;92.90;;;;;;5008668;28;20141;-76
2022/04/23 10:32:47;;;;;;;8.93;6.93;;;15.50;92.90;;;;;;5002731;28;20265;-78
2022/04/23 10:35:19;;;;;;;7.90;7.20;;;15.60;93.10;;;;;;5006907;28;20077;-77
2022/04/23 10:37:48;;;;;;;8.02;7.22;;;15.70;93.00;;;;;;5008599;28;20049;-74
2022/04/23 10:40:15;;;;;;;9.90;6.65;;;15.80;92.80;;;;;;5006235;28;20395;-77
2022/04/23 10:43:03;;;;;;;11.65;7.15;;;15.90;92.20;;;;;;4998087;28;20058;-78
2022/04/23 10:45:36;;;;;;;8.05;7.25;;;15.90;92.00;;;;;;4981838;28;20513;-74
2022/04/23 10:48:23;;;;;;;8.50;7.80;;;16.00;92.30;;;;;;5005468;28;20045;-74
2022/04/23 10:51:16;;;;;;;9.75;7.70;;;16.10;92.00;;;;;;5003299;28;20148;-75
2022/04/23 10:53:41;;;;;;;8.80;8.00;;;17.10;91.70;;;;;;4997854;28;20050;-77
2022/04/23 10:56:10;;;;;;;8.82;6.93;;;16.30;91.40;;;;;;5001212;28;20132;-77
2022/04/23 10:58:40;;;;;;;8.18;7.35;;;16.40;91.00;;;;;;4987150;28;20486;-78
2022/04/23 11:01:26;;;;;;;8.75;7.85;;;16.50;91.00;;;;;;5006618;28;20050;-80
2022/04/23 11:03:55;;;;;;;8.88;7.40;;;16.60;90.80;;;;;;5003040;28;20042;-74
2022/04/23 11:12:26;;;;;;;8.02;7.30;;;16.70;88.00;;;;;;4978366;28;20042;-74
2022/04/23 11:14:55;;;;;;;9.45;7.70;;;16.70;90.00;;;;;;4997663;28;20049;-73
2022/04/23 11:17:23;;;;;;;11.18;7.72;;;16.80;89.90;;;;;;4988840;28;20643;-74
2022/04/23 11:19:55;;;;;;;7.55;6.85;;;16.90;88.00;;;;;;4985180;28;20088;-76
2022/04/23 11:22:22;;;;;;;7.88;7.07;;;17.10;88.40;;;;;;4998284;28;20128;-75
2022/04/23 11:24:48;;;;;;;7.72;6.68;;;17.20;87.80;;;;;;5000071;28;20494;-73
2022/04/23 11:27:24;;;;;;;8.20;7.50;;;17.30;86.10;;;;;;5008334;28;20164;-78
2022/04/23 11:29:54;;;;;;;9.32;6.82;;;17.30;84.90;;;;;;4999196;28;20046;-78
2022/04/23 11:32:27;;;;;;;10.23;7.22;;;17.30;85.20;;;;;;4986655;28;20193;-81
2022/04/23 11:35:04;;;;;;;10.75;7.35;;;17.50;83.70;;;;;;4999604;28;20057;-74
2022/04/23 11:37:39;;;;;;;11.32;6.53;;;17.60;84.00;;;;;;4991575;28;20052;-75
2022/04/23 11:40:11;;;;;;;7.18;6.15;;;17.70;82.10;;;;;;5007100;28;20538;-77
2022/04/23 11:42:40;;;;;;;14.70;6.78;;;17.90;81.50;;;;;;4981086;28;20057;-76
2022/04/23 11:45:14;;;;;;;10.05;6.30;;;17.90;81.70;;;;;;4986515;28;20053;-76
2022/04/23 11:47:40;;;;;;;;;;;18.00;81.20;;;;;;4999310;28;20034;-76
2022/04/23 11:50:13;;;;;;;8.02;6.13;;;18.10;81.00;;;;;;4987773;28;19975;-76
2022/04/23 11:52:41;;;;;;;12.30;6.05;;;18.20;81.20;;;;;;5006231;28;20046;-76
2022/04/23 11:55:09;;;;;;;15.70;6.18;;;18.30;80.60;;;;;;5004917;28;20556;-76
2022/04/23 11:57:35;;;;;;;15.50;6.60;;;18.50;80.20;;;;;;4997276;28;20089;-74
2022/04/23 12:00:03;;;;;;;11.73;5.60;;;18.50;78.20;;;;;;5004664;28;20049;-74
2022/04/23 12:02:31;;;;;;;7.35;6.28;;;18.60;76.90;;;;;;5000764;28;20090;-75
2022/04/23 12:05:01;;;;;;;12.55;6.72;;;18.50;76.60;;;;;;5005980;28;20107;-75
2022/04/23 12:07:30;;;;;;;13.50;6.20;;;18.50;76.70;;;;;;5001828;28;20045;-75
2022/04/23 12:09:58;;;;;;;12.95;6.57;;;18.70;77.80;;;;;;5005707;28;20068;-74
2022/04/23 12:12:29;;;;;;;9.07;6.25;;;18.80;78.50;;;;;;4985090;28;20471;-75
2022/04/23 12:15:04;;;;;;;15.63;6.57;;;19.00;77.10;;;;;;5003476;28;20052;-75
2022/04/23 12:17:50;;;;;;;12.32;5.75;;;19.10;76.40;;;;;;4997904;28;20145;-75
2022/04/23 12:20:21;;;;;;;8.73;5.90;;;19.30;77.00;;;;;;4981584;28;20038;-76
2022/04/23 12:23:07;;;;;;;8.73;6.32;;;19.30;74.70;;;;;;5000549;28;20046;-76
2022/04/23 12:25:34;;;;;;;13.90;6.40;;;19.30;75.60;;;;;;4999787;28;20487;-76
2022/04/23 12:28:01;;;;;;;11.48;6.90;;;19.40;75.80;;;;;;4999863;28;20070;-75
2022/04/23 12:42:20;;;;;;;8.95;7.20;;;19.40;73.90;;;;;;4994257;28;20409;-76
2022/04/23 12:44:46;;;;;;;6.88;5.45;;;19.40;71.50;;;;;;4972013;28;20046;-77
2022/04/23 12:47:13;;;;;;;18.13;5.90;;;19.60;73.20;;;;;;5004009;28;20142;-77
2022/04/23 12:49:54;;;;;;;11.73;5.18;;;19.50;71.70;;;;;;5002462;28;20435;-77
2022/04/23 12:52:32;;;;;;;15.93;5.60;;;19.50;71.50;;;;;;4997012;28;20038;-77
2022/04/23 12:55:29;;;;;;;5.85;5.35;;;19.60;69.90;;;;;;4994444;28;20087;-77
2022/04/23 12:58:08;;;;;;;6.80;4.68;;;19.80;70.60;;;;;;4987190;28;20398;-77
2022/04/23 13:00:41;;;;;;;26.25;5.97;;;19.70;69.90;;;;;;4997525;28;20099;-77
2022/04/23 13:03:24;;;;;;;5.75;4.82;;;19.70;68.70;;;;;;4999195;28;20363;-77
2022/04/23 13:05:49;;;;;;;10.45;4.78;;;19.70;69.90;;;;;;4985140;28;20082;-77
2022/04/23 13:11:24;;;;;;;7.97;4.35;;;19.70;68.80;;;;;;4999083;28;20137;-77
2022/04/23 13:13:45;;;;;;;6.72;4.82;;;19.70;68.60;;;;;;5001395;28;20175;-77
2022/04/23 13:16:11;;;;;;;14.50;4.80;;;19.50;67.00;;;;;;4990529;28;20578;-77
2022/04/23 13:18:37;;;;;;;16.70;5.18;;;19.50;67.60;;;;;;5003631;28;20108;-77
2022/04/23 13:21:05;;;;;;;10.80;5.18;;;19.50;67.70;;;;;;5001594;28;20057;-77
2022/04/23 13:23:31;;;;;;;26.35;5.93;;;19.60;67.70;;;;;;4998787;28;20585;-77
2022/04/23 13:25:57;;;;;;;31.58;6.25;;;19.60;66.90;;;;;;5004111;28;20044;-77
2022/04/23 13:28:23;;;;;;;14.32;5.05;;;19.50;65.80;;;;;;5005663;28;20233;-78